createdAt,value
2018-09-25T00:00:09.441Z,1033.00
2018-09-25T00:01:09.463Z,1033.02
2018-09-25T00:02:09.488Z,1033.04
2018-09-25T00:03:09.512Z,1033.20
2018-09-25T00:04:09.534Z,1033.18
2018-09-25T00:05:09.557Z,1033.19
2018-09-25T00:06:09.581Z,1033.22
2018-09-25T00:07:09.606Z,1033.23
2018-09-25T00:08:09.627Z,1033.23
2018-09-25T00:09:09.649Z,1033.20
2018-09-25T00:10:09.705Z,1033.25
2018-09-25T00:11:09.697Z,1033.19
2018-09-25T00:12:09.722Z,1033.20
2018-09-25T00:13:09.744Z,1033.21
2018-09-25T00:14:09.769Z,1033.21
2018-09-25T00:15:09.816Z,1033.26
2018-09-25T00:16:09.814Z,1033.27
2018-09-25T00:17:09.837Z,1033.29
2018-09-25T00:18:09.861Z,1033.37
2018-09-25T00:19:09.884Z,1033.38
2018-09-25T00:20:09.907Z,1033.40
2018-09-25T00:21:09.930Z,1033.45
2018-09-25T00:22:09.957Z,1033.46
2018-09-25T00:23:09.978Z,1033.47
2018-09-25T00:24:10.000Z,1033.51
2018-09-25T00:25:10.027Z,1033.49
2018-09-25T00:26:10.048Z,1033.53
2018-09-25T00:27:10.072Z,1033.48
2018-09-25T00:28:10.093Z,1033.47
2018-09-25T00:29:10.117Z,1033.46
2018-09-25T00:30:10.141Z,1033.45
2018-09-25T00:31:10.168Z,1033.40
2018-09-25T00:32:10.186Z,1033.41
2018-09-25T00:33:10.210Z,1033.40
2018-09-25T00:34:10.233Z,1033.43
2018-09-25T00:35:10.261Z,1033.46
2018-09-25T00:36:10.280Z,1033.50
2018-09-25T00:37:10.305Z,1033.47
2018-09-25T00:38:10.324Z,1033.45
2018-09-25T00:39:10.350Z,1033.41
2018-09-25T00:40:10.373Z,1033.43
2018-09-25T00:41:10.398Z,1033.51
2018-09-25T00:42:10.424Z,1033.53
2018-09-25T00:43:10.446Z,1033.49
2018-09-25T00:44:10.467Z,1033.39
2018-09-25T00:45:10.489Z,1033.31
2018-09-25T00:46:10.516Z,1033.22
2018-09-25T00:47:10.588Z,1033.20
2018-09-25T00:48:10.559Z,1033.17
2018-09-25T00:49:10.582Z,1033.14
2018-09-25T00:50:10.605Z,1033.14
2018-09-25T00:51:10.629Z,1033.17
2018-09-25T00:52:10.652Z,1033.20
2018-09-25T00:53:10.675Z,1033.22
2018-09-25T00:54:10.700Z,1033.22
2018-09-25T00:55:10.723Z,1033.26
2018-09-25T00:56:10.745Z,1033.30
2018-09-25T00:57:10.769Z,1033.33
2018-09-25T00:58:10.795Z,1033.29
2018-09-25T00:59:10.816Z,1033.33
2018-09-25T01:00:10.838Z,1033.34
2018-09-25T01:01:10.861Z,1033.36
2018-09-25T01:02:10.902Z,1033.36
2018-09-25T01:03:10.909Z,1033.35
2018-09-25T01:04:10.931Z,1033.44
2018-09-25T01:05:10.956Z,1033.44
2018-09-25T01:06:10.979Z,1033.46
2018-09-25T01:07:11.002Z,1033.48
2018-09-25T01:08:11.026Z,1033.52
2018-09-25T01:09:11.048Z,1033.52
2018-09-25T01:10:11.071Z,1033.56
2018-09-25T01:11:11.099Z,1033.55
2018-09-25T01:12:11.118Z,1033.52
2018-09-25T01:13:11.141Z,1033.56
2018-09-25T01:14:11.165Z,1033.56
2018-09-25T01:15:11.186Z,1033.54
2018-09-25T01:16:11.210Z,1033.49
2018-09-25T01:17:11.234Z,1033.51
2018-09-25T01:18:11.259Z,1033.46
2018-09-25T01:19:11.315Z,1033.47
2018-09-25T01:20:11.304Z,1033.45
2018-09-25T01:21:11.332Z,1033.43
2018-09-25T01:22:11.354Z,1033.45
2018-09-25T01:23:11.374Z,1033.40
2018-09-25T01:24:11.397Z,1033.42
2018-09-25T01:25:11.423Z,1033.38
2018-09-25T01:26:11.444Z,1033.41
2018-09-25T01:27:11.469Z,1033.43
2018-09-25T01:28:11.490Z,1033.50
2018-09-25T01:29:11.515Z,1033.47
2018-09-25T01:30:11.538Z,1033.52
2018-09-25T01:31:11.561Z,1033.51
2018-09-25T01:32:11.584Z,1033.47
2018-09-25T01:33:11.608Z,1033.47
2018-09-25T01:34:11.631Z,1033.49
2018-09-25T01:35:11.654Z,1033.45
2018-09-25T01:36:11.681Z,1033.47
2018-09-25T01:37:11.701Z,1033.47
2018-09-25T01:38:11.727Z,1033.47
2018-09-25T01:39:11.749Z,1033.50
2018-09-25T01:40:11.775Z,1033.48
2018-09-25T01:41:11.793Z,1033.51
2018-09-25T01:42:11.819Z,1033.52
2018-09-25T01:43:11.840Z,1033.54
2018-09-25T01:44:11.863Z,1033.50
2018-09-25T01:45:11.887Z,1033.53
2018-09-25T01:46:11.912Z,1033.53
2018-09-25T01:47:11.933Z,1033.54
2018-09-25T01:48:11.965Z,1033.54
2018-09-25T01:49:11.981Z,1033.54
2018-09-25T01:50:12.004Z,1033.54
2018-09-25T01:51:12.028Z,1033.52
2018-09-25T01:52:12.051Z,1033.53
2018-09-25T01:53:12.073Z,1033.54
2018-09-25T01:54:12.098Z,1033.54
2018-09-25T01:55:12.120Z,1033.56
2018-09-25T01:56:12.142Z,1033.57
2018-09-25T01:57:12.166Z,1033.54
2018-09-25T01:58:12.190Z,1033.57
2018-09-25T01:59:12.215Z,1033.59
2018-09-25T02:00:12.236Z,1033.59
2018-09-25T02:01:12.260Z,1033.57
2018-09-25T02:02:12.281Z,1033.56
2018-09-25T02:03:12.308Z,1033.53
2018-09-25T02:04:12.334Z,1033.52
2018-09-25T02:05:12.354Z,1033.48
2018-09-25T02:06:12.377Z,1033.54
2018-09-25T02:07:12.401Z,1033.56
2018-09-25T02:08:12.424Z,1033.53
2018-09-25T02:09:12.451Z,1033.55
2018-09-25T02:10:12.472Z,1033.56
2018-09-25T02:11:12.493Z,1033.55
2018-09-25T02:12:12.517Z,1033.58
2018-09-25T02:13:12.540Z,1033.61
2018-09-25T02:14:12.563Z,1033.61
2018-09-25T02:15:12.590Z,1033.59
2018-09-25T02:16:12.609Z,1033.63
2018-09-25T02:17:12.632Z,1033.70
2018-09-25T02:18:12.656Z,1033.76
2018-09-25T02:19:12.682Z,1033.78
2018-09-25T02:20:12.706Z,1033.74
2018-09-25T02:21:12.726Z,1033.67
2018-09-25T02:22:12.750Z,1033.65
2018-09-25T02:23:12.773Z,1033.60
2018-09-25T02:24:12.795Z,1033.63
2018-09-25T02:25:12.823Z,1033.63
2018-09-25T02:26:12.847Z,1033.66
2018-09-25T02:27:12.866Z,1033.67
2018-09-25T02:28:12.889Z,1033.70
2018-09-25T02:29:12.915Z,1033.65
2018-09-25T02:30:12.938Z,1033.69
2018-09-25T02:31:12.968Z,1033.75
2018-09-25T02:32:12.985Z,1033.71
2018-09-25T02:33:13.006Z,1033.80
2018-09-25T02:34:13.042Z,1033.73
2018-09-25T02:35:13.053Z,1033.72
2018-09-25T02:36:13.075Z,1033.74
2018-09-25T02:37:13.102Z,1033.77
2018-09-25T02:38:13.122Z,1033.79
2018-09-25T02:39:13.147Z,1033.85
2018-09-25T02:40:13.168Z,1033.92
2018-09-25T02:41:13.192Z,1033.89
2018-09-25T02:42:13.216Z,1033.87
2018-09-25T02:43:13.239Z,1033.91
2018-09-25T02:44:13.262Z,1033.93
2018-09-25T02:45:13.286Z,1033.92
2018-09-25T02:46:13.308Z,1033.88
2018-09-25T02:47:13.334Z,1033.91
2018-09-25T02:48:13.355Z,1033.91
2018-09-25T02:49:13.380Z,1033.95
2018-09-25T02:50:13.405Z,1033.98
2018-09-25T02:51:13.426Z,1033.99
2018-09-25T02:52:13.449Z,1034.04
2018-09-25T02:53:13.473Z,1034.02
2018-09-25T02:54:13.495Z,1033.98
2018-09-25T02:55:13.521Z,1033.97
2018-09-25T02:56:13.543Z,1034.00
2018-09-25T02:57:13.565Z,1033.98
2018-09-25T02:58:13.590Z,1033.96
2018-09-25T02:59:13.612Z,1033.98
2018-09-25T03:00:13.635Z,1033.79
2018-09-25T03:01:13.659Z,1033.88
2018-09-25T03:02:13.683Z,1033.93
2018-09-25T03:03:13.706Z,1034.00
2018-09-25T03:04:13.728Z,1034.04
2018-09-25T03:05:13.751Z,1034.03
2018-09-25T03:06:13.775Z,1034.07
2018-09-25T03:07:13.802Z,1034.08
2018-09-25T03:08:13.821Z,1034.10
2018-09-25T03:09:13.848Z,1034.14
2018-09-25T03:10:13.873Z,1034.21
2018-09-25T03:11:13.893Z,1034.21
2018-09-25T03:12:13.915Z,1034.23
2018-09-25T03:13:13.939Z,1034.25
2018-09-25T03:14:13.964Z,1034.23
2018-09-25T03:15:14.060Z,1034.24
2018-09-25T03:16:14.009Z,1034.22
2018-09-25T03:17:14.032Z,1034.21
2018-09-25T03:18:14.055Z,1034.18
2018-09-25T03:19:14.125Z,1034.15
2018-09-25T03:20:14.106Z,1034.17
2018-09-25T03:21:14.126Z,1034.12
2018-09-25T03:22:14.149Z,1034.16
2018-09-25T03:23:14.174Z,1034.16
2018-09-25T03:24:14.195Z,1034.19
2018-09-25T03:25:14.238Z,1034.14
2018-09-25T03:26:14.242Z,1034.13
2018-09-25T03:27:14.267Z,1034.17
2018-09-25T03:28:14.289Z,1034.16
2018-09-25T03:29:14.312Z,1034.15
2018-09-25T03:30:14.337Z,1034.16
2018-09-25T03:31:14.362Z,1034.14
2018-09-25T03:32:14.383Z,1034.19
2018-09-25T03:33:14.406Z,1034.19
2018-09-25T03:34:14.428Z,1034.19
2018-09-25T03:35:14.453Z,1034.18
2018-09-25T03:36:14.475Z,1034.23
2018-09-25T03:37:14.499Z,1034.21
2018-09-25T03:38:14.529Z,1034.18
2018-09-25T03:39:14.546Z,1034.18
2018-09-25T03:40:14.572Z,1034.19
2018-09-25T03:41:14.599Z,1034.23
2018-09-25T03:42:14.616Z,1034.20
2018-09-25T03:43:14.643Z,1034.19
2018-09-25T03:44:14.663Z,1034.22
2018-09-25T03:45:14.685Z,1034.21
2018-09-25T03:46:14.711Z,1034.22
2018-09-25T03:47:14.734Z,1034.24
2018-09-25T03:48:14.756Z,1034.26
2018-09-25T03:49:14.779Z,1034.25
2018-09-25T03:50:14.805Z,1034.27
2018-09-25T03:51:14.826Z,1034.25
2018-09-25T03:52:14.849Z,1034.24
2018-09-25T03:53:14.872Z,1034.29
2018-09-25T03:54:14.899Z,1034.28
2018-09-25T03:55:14.919Z,1034.26
2018-09-25T03:56:14.945Z,1034.31
2018-09-25T03:57:14.967Z,1034.30
2018-09-25T03:58:14.992Z,1034.31
2018-09-25T03:59:15.014Z,1034.35
2018-09-25T04:00:15.035Z,1034.33
2018-09-25T04:01:15.060Z,1034.28
2018-09-25T04:02:15.087Z,1034.32
2018-09-25T04:03:15.107Z,1034.34
2018-09-25T04:04:15.132Z,1034.32
2018-09-25T04:05:15.154Z,1034.32
2018-09-25T04:06:15.212Z,1034.33
2018-09-25T04:07:15.201Z,1034.27
2018-09-25T04:08:15.224Z,1034.30
2018-09-25T04:09:15.248Z,1034.29
2018-09-25T04:10:15.270Z,1034.28
2018-09-25T04:11:15.294Z,1034.32
2018-09-25T04:12:15.317Z,1034.32
2018-09-25T04:13:15.339Z,1034.36
2018-09-25T04:14:15.369Z,1034.40
2018-09-25T04:15:15.387Z,1034.40
2018-09-25T04:16:15.409Z,1034.45
2018-09-25T04:17:15.435Z,1034.44
2018-09-25T04:18:15.457Z,1034.46
2018-09-25T04:19:15.480Z,1034.45
2018-09-25T04:20:15.504Z,1034.42
2018-09-25T04:21:15.528Z,1034.42
2018-09-25T04:22:15.550Z,1034.43
2018-09-25T04:23:15.573Z,1034.36
2018-09-25T04:24:15.597Z,1034.35
2018-09-25T04:25:15.619Z,1034.35
2018-09-25T04:26:15.644Z,1034.32
2018-09-25T04:27:15.677Z,1034.31
2018-09-25T04:28:15.722Z,1034.33
2018-09-25T04:29:15.717Z,1034.30
2018-09-25T04:30:15.738Z,1034.33
2018-09-25T04:31:15.760Z,1034.34
2018-09-25T04:32:15.784Z,1034.34
2018-09-25T04:33:15.808Z,1034.33
2018-09-25T04:34:15.832Z,1034.34
2018-09-25T04:35:15.854Z,1034.39
2018-09-25T04:36:15.876Z,1034.38
2018-09-25T04:37:15.993Z,1034.39
2018-09-25T04:38:15.927Z,1034.38
2018-09-25T04:39:15.948Z,1034.39
2018-09-25T04:40:15.970Z,1034.39
2018-09-25T04:41:15.995Z,1034.45
2018-09-25T04:42:16.021Z,1034.41
2018-09-25T04:43:16.042Z,1034.45
2018-09-25T04:44:16.064Z,1034.48
2018-09-25T04:45:16.090Z,1034.46
2018-09-25T04:46:16.114Z,1034.48
2018-09-25T04:47:16.134Z,1034.50
2018-09-25T04:48:16.156Z,1034.50
2018-09-25T04:49:16.180Z,1034.47
2018-09-25T04:50:16.205Z,1034.47
2018-09-25T04:51:16.228Z,1034.48
2018-09-25T04:52:16.250Z,1034.48
2018-09-25T04:53:16.274Z,1034.48
2018-09-25T04:54:16.298Z,1034.43
2018-09-25T04:55:16.321Z,1034.44
2018-09-25T04:56:16.344Z,1034.43
2018-09-25T04:57:16.368Z,1034.48
2018-09-25T04:58:16.391Z,1034.50
2018-09-25T04:59:16.414Z,1034.46
2018-09-25T05:00:16.444Z,1034.48
2018-09-25T05:01:16.461Z,1034.48
2018-09-25T05:02:16.485Z,1034.51
2018-09-25T05:03:16.508Z,1034.49
2018-09-25T05:04:16.530Z,1034.49
2018-09-25T05:05:16.554Z,1034.50
2018-09-25T05:06:16.579Z,1034.53
2018-09-25T05:07:16.604Z,1034.53
2018-09-25T05:08:16.624Z,1034.51
2018-09-25T05:09:16.647Z,1034.51
2018-09-25T05:10:16.672Z,1034.53
2018-09-25T05:11:16.696Z,1034.56
2018-09-25T05:12:16.732Z,1034.59
2018-09-25T05:13:16.741Z,1034.60
2018-09-25T05:14:16.764Z,1034.68
2018-09-25T05:15:16.790Z,1034.64
2018-09-25T05:16:16.810Z,1034.67
2018-09-25T05:17:16.836Z,1034.69
2018-09-25T05:18:16.888Z,1034.70
2018-09-25T05:19:16.888Z,1034.69
2018-09-25T05:20:16.904Z,1034.69
2018-09-25T05:21:16.927Z,1034.70
2018-09-25T05:22:16.952Z,1034.65
2018-09-25T05:23:17.028Z,1034.68
2018-09-25T05:24:16.999Z,1034.72
2018-09-25T05:25:17.021Z,1034.73
2018-09-25T05:26:17.048Z,1034.78
2018-09-25T05:27:17.070Z,1034.73
2018-09-25T05:28:17.089Z,1034.79
2018-09-25T05:29:17.114Z,1034.78
2018-09-25T05:30:17.137Z,1034.77
2018-09-25T05:31:17.165Z,1034.78
2018-09-25T05:32:17.183Z,1034.78
2018-09-25T05:33:17.212Z,1034.84
2018-09-25T05:34:17.233Z,1034.81
2018-09-25T05:35:17.255Z,1034.81
2018-09-25T05:36:17.277Z,1034.81
2018-09-25T05:37:17.305Z,1034.86
2018-09-25T05:38:17.324Z,1034.87
2018-09-25T05:39:17.350Z,1034.84
2018-09-25T05:40:17.373Z,1034.90
2018-09-25T05:41:17.396Z,1034.93
2018-09-25T05:42:17.420Z,1034.97
2018-09-25T05:43:17.447Z,1034.96
2018-09-25T05:44:17.465Z,1035.01
2018-09-25T05:45:17.491Z,1035.01
2018-09-25T05:46:17.513Z,1035.00
2018-09-25T05:47:17.542Z,1035.00
2018-09-25T05:48:17.604Z,1034.98
2018-09-25T05:49:17.588Z,1035.00
2018-09-25T05:50:17.607Z,1034.97
2018-09-25T05:51:17.631Z,1034.99
2018-09-25T05:52:17.654Z,1035.01
2018-09-25T05:53:17.680Z,1034.97
2018-09-25T05:54:17.703Z,1035.00
2018-09-25T05:55:17.726Z,1035.01
2018-09-25T05:56:17.751Z,1035.03
2018-09-25T05:57:17.773Z,1034.98
2018-09-25T05:58:17.798Z,1035.01
2018-09-25T05:59:17.820Z,1035.06
2018-09-25T06:00:17.844Z,1035.07
2018-09-25T06:01:17.866Z,1035.05
2018-09-25T06:02:17.892Z,1035.08
2018-09-25T06:03:17.919Z,1035.09
2018-09-25T06:04:17.941Z,1035.11
2018-09-25T06:05:17.963Z,1035.13
2018-09-25T06:06:17.984Z,1035.14
2018-09-25T06:07:18.010Z,1035.19
2018-09-25T06:08:18.033Z,1035.20
2018-09-25T06:09:18.103Z,1035.18
2018-09-25T06:10:18.081Z,1035.13
2018-09-25T06:11:18.107Z,1035.19
2018-09-25T06:12:18.130Z,1035.19
2018-09-25T06:13:18.153Z,1035.22
2018-09-25T06:14:18.176Z,1035.23
2018-09-25T06:15:18.199Z,1035.34
2018-09-25T06:16:18.223Z,1035.37
2018-09-25T06:17:18.247Z,1035.42
2018-09-25T06:18:18.270Z,1035.43
2018-09-25T06:19:18.296Z,1035.40
2018-09-25T06:20:18.318Z,1035.41
2018-09-25T06:21:18.348Z,1035.37
2018-09-25T06:22:18.365Z,1035.47
2018-09-25T06:23:18.392Z,1035.49
2018-09-25T06:24:18.412Z,1035.46
2018-09-25T06:25:18.436Z,1035.47
2018-09-25T06:26:18.460Z,1035.49
2018-09-25T06:27:18.485Z,1035.49
2018-09-25T06:28:18.501Z,1035.51
2018-09-25T06:29:18.531Z,1035.53
2018-09-25T06:30:18.558Z,1035.54
2018-09-25T06:31:18.579Z,1035.53
2018-09-25T06:32:18.603Z,1035.52
2018-09-25T06:33:18.626Z,1035.57
2018-09-25T06:34:18.653Z,1035.53
2018-09-25T06:35:18.674Z,1035.54
2018-09-25T06:36:18.696Z,1035.54
2018-09-25T06:37:18.770Z,1035.57
2018-09-25T06:38:18.750Z,1035.57
2018-09-25T06:39:18.769Z,1035.58
2018-09-25T06:40:18.791Z,1035.55
2018-09-25T06:41:18.816Z,1035.53
2018-09-25T06:42:18.839Z,1035.54
2018-09-25T06:43:18.868Z,1035.45
2018-09-25T06:44:18.892Z,1035.44
2018-09-25T06:45:18.913Z,1035.45
2018-09-25T06:46:18.974Z,1035.39
2018-09-25T06:47:18.999Z,1035.42
2018-09-25T06:48:18.984Z,1035.43
2018-09-25T06:49:19.012Z,1035.40
2018-09-25T06:50:19.033Z,1035.44
2018-09-25T06:51:19.064Z,1035.49
2018-09-25T06:52:19.079Z,1035.45
2018-09-25T06:53:19.105Z,1035.48
2018-09-25T06:54:19.135Z,1035.43
2018-09-25T06:55:19.210Z,1035.45
2018-09-25T06:56:19.171Z,1035.52
2018-09-25T06:57:19.196Z,1035.57
2018-09-25T06:58:19.222Z,1035.61
2018-09-25T06:59:19.249Z,1035.61
2018-09-25T07:00:19.269Z,1035.62
2018-09-25T07:01:19.308Z,1035.62
2018-09-25T07:02:19.322Z,1035.62
2018-09-25T07:03:19.362Z,1035.63
2018-09-25T07:04:19.368Z,1035.63
2018-09-25T07:05:19.394Z,1035.65
2018-09-25T07:06:19.424Z,1035.64
2018-09-25T07:07:19.438Z,1035.66
2018-09-25T07:08:19.462Z,1035.71
2018-09-25T07:09:19.484Z,1035.68
2018-09-25T07:10:19.583Z,1035.73
2018-09-25T07:11:19.535Z,1035.71
2018-09-25T07:12:19.553Z,1035.71
2018-09-25T07:13:19.580Z,1035.72
2018-09-25T07:14:19.608Z,1035.77
2018-09-25T07:15:19.627Z,1035.80
2018-09-25T07:16:19.650Z,1035.76
2018-09-25T07:17:19.675Z,1035.78
2018-09-25T07:18:19.698Z,1035.82
2018-09-25T07:19:19.723Z,1035.84
2018-09-25T07:20:19.749Z,1035.81
2018-09-25T07:21:19.770Z,1035.86
2018-09-25T07:22:19.795Z,1035.90
2018-09-25T07:23:19.818Z,1035.92
2018-09-25T07:24:19.840Z,1035.92
2018-09-25T07:25:19.866Z,1035.92
2018-09-25T07:26:19.898Z,1035.94
2018-09-25T07:27:19.922Z,1035.94
2018-09-25T07:28:19.937Z,1035.97
2018-09-25T07:29:19.964Z,1035.96
2018-09-25T07:30:19.986Z,1035.98
2018-09-25T07:31:20.008Z,1036.01
2018-09-25T07:32:20.031Z,1036.02
2018-09-25T07:33:20.057Z,1035.98
2018-09-25T07:34:20.083Z,1035.96
2018-09-25T07:35:20.107Z,1036.01
2018-09-25T07:36:20.130Z,1036.01
2018-09-25T07:37:20.157Z,1036.00
2018-09-25T07:38:20.180Z,1036.01
2018-09-25T07:39:20.204Z,1036.00
2018-09-25T07:40:20.225Z,1036.00
2018-09-25T07:41:20.256Z,1036.10
2018-09-25T07:42:20.275Z,1036.04
2018-09-25T07:43:20.303Z,1036.09
2018-09-25T07:44:20.410Z,1036.09
2018-09-25T07:45:20.353Z,1036.12
2018-09-25T07:46:20.371Z,1036.16
2018-09-25T07:47:20.413Z,1036.13
2018-09-25T07:49:20.445Z,1036.13
2018-09-25T07:50:20.469Z,1036.15
2018-09-25T07:51:20.494Z,1036.14
2018-09-25T07:52:20.516Z,1036.14
2018-09-25T07:53:20.549Z,1036.11
2018-09-25T07:54:20.566Z,1036.13
2018-09-25T07:55:20.588Z,1036.14
2018-09-25T07:56:20.619Z,1036.12
2018-09-25T07:57:20.638Z,1036.13
2018-09-25T07:58:20.657Z,1036.15
2018-09-25T07:59:20.685Z,1036.16
2018-09-25T08:00:20.711Z,1036.22
2018-09-25T08:01:21.213Z,1036.21
2018-09-25T08:02:21.041Z,1036.22
2018-09-25T08:03:20.917Z,1036.23
2018-09-25T08:04:21.544Z,1036.27
2018-09-25T08:05:20.952Z,1036.29
2018-09-25T08:06:21.547Z,1036.31
2018-09-25T08:07:20.884Z,1036.30
2018-09-25T08:08:21.697Z,1036.30
2018-09-25T08:09:21.373Z,1036.31
2018-09-25T08:10:21.369Z,1036.31
2018-09-25T08:11:21.584Z,1036.33
2018-09-25T08:12:20.993Z,1036.29
2018-09-25T08:13:21.028Z,1036.30
2018-09-25T08:14:21.282Z,1036.30
2018-09-25T08:15:21.684Z,1036.27
2018-09-25T08:16:21.096Z,1036.32
2018-09-25T08:17:21.160Z,1036.27
2018-09-25T08:18:21.551Z,1036.30
2018-09-25T08:19:21.834Z,1036.31
2018-09-25T08:20:21.830Z,1036.28
2018-09-25T08:21:21.446Z,1036.29
2018-09-25T08:22:21.782Z,1036.34
2018-09-25T08:23:21.758Z,1036.33
2018-09-25T08:24:21.916Z,1036.37
2018-09-25T08:25:21.487Z,1036.37
2018-09-25T08:26:21.782Z,1036.38
2018-09-25T08:27:21.534Z,1036.36
2018-09-25T08:28:21.763Z,1036.39
2018-09-25T08:29:21.856Z,1036.39
2018-09-25T08:30:22.015Z,1036.42
2018-09-25T08:31:21.580Z,1036.42
2018-09-25T08:32:22.125Z,1036.44
2018-09-25T08:33:21.917Z,1036.46
2018-09-25T08:34:21.631Z,1036.46
2018-09-25T08:35:21.603Z,1036.49
2018-09-25T08:36:21.650Z,1036.50
2018-09-25T08:37:21.673Z,1036.50
2018-09-25T08:38:23.385Z,1036.49
2018-09-25T08:39:22.227Z,1036.51
2018-09-25T08:40:21.732Z,1036.57
2018-09-25T08:41:22.062Z,1036.57
2018-09-25T08:42:21.877Z,1036.59
2018-09-25T08:43:21.759Z,1036.63
2018-09-25T08:44:21.972Z,1036.61
2018-09-25T08:45:21.846Z,1036.61
2018-09-25T08:46:21.884Z,1036.58
2018-09-25T08:47:22.227Z,1036.54
2018-09-25T08:48:21.873Z,1036.57
2018-09-25T08:49:21.898Z,1036.56
2018-09-25T08:50:22.081Z,1036.59
2018-09-25T08:51:22.152Z,1036.61
2018-09-25T08:52:22.053Z,1036.60
2018-09-25T08:53:22.266Z,1036.62
2018-09-25T08:54:22.028Z,1036.62
2018-09-25T08:55:22.382Z,1036.62
2018-09-25T08:56:22.220Z,1036.65
2018-09-25T08:57:22.167Z,1036.66
2018-09-25T08:58:22.617Z,1036.59
2018-09-25T08:59:22.351Z,1036.60
2018-09-25T09:00:22.307Z,1036.58
2018-09-25T09:01:22.322Z,1036.57
2018-09-25T09:02:22.609Z,1036.58
2018-09-25T09:03:22.238Z,1036.60
2018-09-25T09:04:22.717Z,1036.61
2018-09-25T09:05:23.317Z,1036.58
2018-09-25T09:06:22.475Z,1036.64
2018-09-25T09:07:22.594Z,1036.60
2018-09-25T09:08:22.581Z,1036.63
2018-09-25T09:09:22.431Z,1036.59
2018-09-25T09:10:22.600Z,1036.61
2018-09-25T09:11:22.998Z,1036.62
2018-09-25T09:12:22.649Z,1036.64
2018-09-25T09:13:22.551Z,1036.67
2018-09-25T09:14:22.916Z,1036.64
2018-09-25T09:15:22.689Z,1036.69
2018-09-25T09:16:22.664Z,1036.68
2018-09-25T09:17:22.732Z,1036.70
2018-09-25T09:18:22.612Z,1036.70
2018-09-25T09:19:22.635Z,1036.72
2018-09-25T09:20:22.657Z,1036.75
2018-09-25T09:21:22.686Z,1036.70
2018-09-25T09:22:22.707Z,1036.71
2018-09-25T09:23:22.729Z,1036.67
2018-09-25T09:24:22.763Z,1036.67
2018-09-25T09:25:22.780Z,1036.66
2018-09-25T09:26:22.805Z,1036.64
2018-09-25T09:27:22.828Z,1036.63
2018-09-25T09:28:22.850Z,1036.63
2018-09-25T09:29:22.880Z,1036.63
2018-09-25T09:30:22.906Z,1036.68
2018-09-25T09:31:22.930Z,1036.68
2018-09-25T09:32:22.958Z,1036.71
2018-09-25T09:33:22.979Z,1036.72
2018-09-25T09:34:23.000Z,1036.74
2018-09-25T09:35:23.025Z,1036.72
2018-09-25T09:36:23.051Z,1036.74
2018-09-25T09:37:23.075Z,1036.74
2018-09-25T09:38:23.097Z,1036.74
2018-09-25T09:39:23.123Z,1036.76
2018-09-25T09:40:23.145Z,1036.72
2018-09-25T09:41:23.252Z,1036.74
2018-09-25T09:42:23.194Z,1036.73
2018-09-25T09:43:23.219Z,1036.74
2018-09-25T09:44:23.243Z,1036.75
2018-09-25T09:45:23.264Z,1036.79
2018-09-25T09:46:23.293Z,1036.80
2018-09-25T09:47:23.318Z,1036.81
2018-09-25T09:48:23.340Z,1036.84
2018-09-25T09:49:23.382Z,1036.83
2018-09-25T09:50:23.444Z,1036.85
2018-09-25T09:51:23.414Z,1036.87
2018-09-25T09:52:23.439Z,1036.83
2018-09-25T09:53:23.461Z,1036.89
2018-09-25T09:54:23.485Z,1036.88
2018-09-25T09:55:23.511Z,1036.86
2018-09-25T09:56:23.597Z,1036.89
2018-09-25T09:57:23.558Z,1036.91
2018-09-25T09:58:23.591Z,1036.96
2018-09-25T09:59:23.608Z,1036.94
2018-09-25T10:00:23.632Z,1036.97
2018-09-25T10:01:23.655Z,1036.95
2018-09-25T10:02:23.678Z,1036.97
2018-09-25T10:03:23.701Z,1036.98
2018-09-25T10:04:23.729Z,1036.95
2018-09-25T10:05:23.806Z,1037.00
2018-09-25T10:06:23.779Z,1037.03
2018-09-25T10:07:23.804Z,1037.03
2018-09-25T10:08:23.828Z,1037.02
2018-09-25T10:09:23.851Z,1037.04
2018-09-25T10:10:23.878Z,1037.09
2018-09-25T10:11:23.947Z,1037.08
2018-09-25T10:12:23.935Z,1037.05
2018-09-25T10:13:23.947Z,1037.07
2018-09-25T10:14:23.977Z,1037.01
2018-09-25T10:15:23.996Z,1037.03
2018-09-25T10:16:24.018Z,1037.01
2018-09-25T10:17:24.045Z,1037.07
2018-09-25T10:18:24.068Z,1037.09
2018-09-25T10:19:24.093Z,1037.05
2018-09-25T10:20:24.118Z,1037.08
2018-09-25T10:21:24.141Z,1037.04
2018-09-25T10:22:24.168Z,1037.02
2018-09-25T10:23:24.193Z,1037.04
2018-09-25T10:24:24.217Z,1037.05
2018-09-25T10:25:24.245Z,1037.02
2018-09-25T10:26:24.270Z,1037.02
2018-09-25T10:27:24.357Z,1037.00
2018-09-25T10:28:24.316Z,1037.03
2018-09-25T10:29:24.338Z,1037.05
2018-09-25T10:30:24.364Z,1037.01
2018-09-25T10:31:24.392Z,1037.02
2018-09-25T10:32:24.413Z,1037.02
2018-09-25T10:33:24.438Z,1037.03
2018-09-25T10:34:24.463Z,1037.04
2018-09-25T10:35:24.488Z,1037.05
2018-09-25T10:36:24.517Z,1037.01
2018-09-25T10:37:24.534Z,1037.02
2018-09-25T10:38:24.562Z,1037.02
2018-09-25T10:39:24.587Z,1036.99
2018-09-25T10:40:24.609Z,1037.02
2018-09-25T10:41:24.645Z,1037.00
2018-09-25T10:42:24.663Z,1036.96
2018-09-25T10:43:24.688Z,1036.97
2018-09-25T10:44:24.708Z,1036.99
2018-09-25T10:45:24.734Z,1036.98
2018-09-25T10:46:24.770Z,1036.97
2018-09-25T10:47:24.784Z,1036.97
2018-09-25T10:48:24.809Z,1036.96
2018-09-25T10:49:24.831Z,1036.96
2018-09-25T10:50:24.857Z,1037.00
2018-09-25T10:51:24.880Z,1036.99
2018-09-25T10:52:24.904Z,1037.03
2018-09-25T10:53:24.963Z,1037.02
2018-09-25T10:54:24.954Z,1036.95
2018-09-25T10:55:25.033Z,1036.96
2018-09-25T10:56:24.998Z,1036.97
2018-09-25T10:57:25.023Z,1036.95
2018-09-25T10:58:25.047Z,1036.93
2018-09-25T10:59:25.072Z,1036.93
2018-09-25T11:00:25.106Z,1036.93
2018-09-25T11:01:25.123Z,1036.93
2018-09-25T11:02:25.146Z,1036.96
2018-09-25T11:03:25.177Z,1036.93
2018-09-25T11:04:25.194Z,1036.96
2018-09-25T11:05:25.221Z,1036.98
2018-09-25T11:06:25.244Z,1036.96
2018-09-25T11:07:25.273Z,1036.96
2018-09-25T11:08:25.294Z,1036.99
2018-09-25T11:09:25.318Z,1036.95
2018-09-25T11:10:25.345Z,1036.94
2018-09-25T11:11:25.371Z,1036.92
2018-09-25T11:12:25.399Z,1036.94
2018-09-25T11:13:25.418Z,1036.97
2018-09-25T11:14:25.447Z,1036.91
2018-09-25T11:15:25.466Z,1036.92
2018-09-25T11:16:25.490Z,1036.95
2018-09-25T11:17:25.514Z,1036.97
2018-09-25T11:18:25.539Z,1037.01
2018-09-25T11:19:25.561Z,1036.94
2018-09-25T11:20:25.650Z,1036.93
2018-09-25T11:21:25.617Z,1036.98
2018-09-25T11:22:25.701Z,1036.95
2018-09-25T11:23:25.677Z,1036.96
2018-09-25T11:24:25.685Z,1036.90
2018-09-25T11:25:25.760Z,1036.93
2018-09-25T11:26:25.736Z,1036.91
2018-09-25T11:27:25.762Z,1036.95
2018-09-25T11:28:25.785Z,1036.88
2018-09-25T11:29:25.811Z,1036.91
2018-09-25T11:30:25.834Z,1036.92
2018-09-25T11:31:25.860Z,1036.95
2018-09-25T11:32:25.899Z,1036.92
2018-09-25T11:33:25.909Z,1036.95
2018-09-25T11:34:25.961Z,1036.89
2018-09-25T11:35:26.108Z,1036.91
2018-09-25T11:36:25.985Z,1037.03
2018-09-25T11:37:26.009Z,1036.91
2018-09-25T11:38:26.031Z,1036.94
2018-09-25T11:39:26.057Z,1036.93
2018-09-25T11:40:26.081Z,1036.91
2018-09-25T11:41:26.182Z,1036.92
2018-09-25T11:42:26.127Z,1036.91
2018-09-25T11:43:26.154Z,1036.83
2018-09-25T11:44:26.178Z,1036.81
2018-09-25T11:45:26.201Z,1036.79
2018-09-25T11:46:26.225Z,1036.79
2018-09-25T11:47:26.252Z,1036.72
2018-09-25T11:48:26.273Z,1036.70
2018-09-25T11:49:26.301Z,1036.71
2018-09-25T11:50:26.330Z,1036.66
2018-09-25T11:51:26.351Z,1036.59
2018-09-25T11:52:26.369Z,1036.62
2018-09-25T11:53:26.399Z,1036.66
2018-09-25T11:54:26.430Z,1036.60
2018-09-25T11:55:26.447Z,1036.59
2018-09-25T11:56:26.550Z,1036.61
2018-09-25T11:57:26.497Z,1036.63
2018-09-25T11:58:26.552Z,1036.61
2018-09-25T11:59:26.548Z,1036.55
2018-09-25T12:00:26.572Z,1036.55
2018-09-25T12:01:26.603Z,1036.51
2018-09-25T12:02:26.622Z,1036.47
2018-09-25T12:03:26.649Z,1036.49
2018-09-25T12:04:26.679Z,1036.47
2018-09-25T12:05:26.693Z,1036.45
2018-09-25T12:06:26.720Z,1036.42